San Bruno, California
Current Conditions -  °F | °C
As of 12:56 PM on Friday 31 Oct 2014 (Local Time) from KSFO Reporting Station
Light Rain Light Rain  
Wind Chill: 60°   Ceiling: 3600
Heat Index: 60°   Visibility: 10mi
Dew Point: 57°   Wind: 3mph
Humidity: 90%   Direction: 300°WNW
Pressure: 29.85"   Gusts: NA
Location:  37.62°N, 122.41°W
Report Text: KSFO 311956Z 30003KT 10SM -RA FEW008 BKN036 BKN042 16/14 A2985 RMK AO2 RAE05B40 SLP108 P0000 T01560139
Loading
Personal Weather Stations






























Interactive Weather Map
Tropical Storm Tracking
New forecast layout! Learn more

10-Day Weather Forecast

Advertisements
Track Severe Weather on mobile